Time;durP1;ratioP1;P1;durP2;ratioP2;P2;SDS_P1;SDS_P2;PMS_P1;PMS_P2;Temp;Humidity;BMP_temperature;BMP_pressure;BME280_temperature;BME280_humidity;BME280_pressure;Samples;Min_cycle;Max_cycle;Signal;HPM_P1;HPM_P2
2021/05/30 00:01:46;;;;;;;10.15;5.95;;;14.90;99.90;;;;;;4158181;28;20093;-69
2021/05/30 00:03:46;;;;;;;8.23;5.63;;;14.90;99.90;;;;;;4158111;28;20193;-68
2021/05/30 00:05:47;;;;;;;7.85;5.60;;;14.90;99.90;;;;;;4156820;28;20053;-68
2021/05/30 00:07:47;;;;;;;7.00;5.43;;;14.90;99.90;;;;;;4157844;28;20041;-68
2021/05/30 00:09:51;;;;;;;7.07;6.03;;;14.80;99.90;;;;;;4158401;28;20041;-68
2021/05/30 00:11:53;;;;;;;8.05;5.90;;;14.90;99.90;;;;;;4156375;28;20513;-69
2021/05/30 00:13:55;;;;;;;7.03;5.57;;;14.80;99.90;;;;;;4156827;28;20635;-69
2021/05/30 00:15:56;;;;;;;8.43;5.78;;;14.80;99.90;;;;;;4157985;28;20052;-68
2021/05/30 00:17:57;;;;;;;8.45;5.72;;;14.80;99.90;;;;;;4156680;28;20029;-68
2021/05/30 00:19:57;;;;;;;9.98;5.78;;;14.80;99.90;;;;;;4155301;28;20041;-68
2021/05/30 00:21:58;;;;;;;9.32;5.72;;;14.70;99.90;;;;;;4139590;28;20038;-68
2021/05/30 00:23:58;;;;;;;8.20;5.90;;;14.70;99.90;;;;;;4156507;28;20525;-68
2021/05/30 00:25:59;;;;;;;8.93;6.40;;;14.70;99.90;;;;;;4158278;28;20037;-68
2021/05/30 00:28:00;;;;;;;8.55;5.85;;;14.70;99.90;;;;;;4156143;28;20040;-68
2021/05/30 00:30:02;;;;;;;8.77;6.05;;;14.70;99.90;;;;;;4156589;28;20037;-69
2021/05/30 00:32:03;;;;;;;9.30;6.93;;;14.70;99.90;;;;;;4157795;28;20112;-69
2021/05/30 00:34:04;;;;;;;9.50;6.03;;;14.60;99.90;;;;;;4155184;28;20049;-68
2021/05/30 00:36:05;;;;;;;9.25;6.63;;;14.60;99.90;;;;;;4156298;28;20112;-68
2021/05/30 00:38:05;;;;;;;8.50;5.95;;;14.60;99.90;;;;;;4156995;28;20037;-69
2021/05/30 00:40:07;;;;;;;8.43;5.70;;;14.50;99.90;;;;;;4156424;28;20029;-68
2021/05/30 00:42:07;;;;;;;7.78;6.15;;;14.50;99.90;;;;;;4157010;28;20030;-68
2021/05/30 00:44:25;;;;;;;8.32;6.00;;;14.50;99.90;;;;;;4157181;28;20399;-68
2021/05/30 00:46:29;;;;;;;9.55;6.22;;;14.40;99.90;;;;;;4155444;28;20041;-69
2021/05/30 00:48:30;;;;;;;8.60;5.93;;;14.40;99.90;;;;;;4156079;28;20025;-69
2021/05/30 00:50:31;;;;;;;9.05;6.38;;;14.40;99.90;;;;;;4153943;28;20539;-69
2021/05/30 00:52:32;;;;;;;8.82;6.30;;;14.40;99.90;;;;;;4157920;28;20091;-68
2021/05/30 00:54:37;;;;;;;8.25;6.28;;;14.50;99.90;;;;;;4154675;28;20489;-68
2021/05/30 00:56:40;;;;;;;7.35;5.45;;;14.40;99.90;;;;;;4156635;28;20474;-68
2021/05/30 00:58:41;;;;;;;8.82;5.85;;;14.40;99.90;;;;;;4139106;28;20069;-69
2021/05/30 01:00:41;;;;;;;10.55;6.57;;;14.40;99.90;;;;;;4157236;28;20025;-69
2021/05/30 01:02:42;;;;;;;13.48;5.93;;;14.40;99.90;;;;;;4154116;28;20040;-69
2021/05/30 01:04:43;;;;;;;10.15;6.75;;;14.40;99.90;;;;;;4157608;28;20129;-68
2021/05/30 01:06:44;;;;;;;9.40;6.47;;;14.40;99.90;;;;;;4157534;28;20034;-69
2021/05/30 01:08:46;;;;;;;8.70;6.30;;;14.40;99.90;;;;;;4156995;28;20030;-69
2021/05/30 01:10:47;;;;;;;7.63;5.85;;;14.30;99.90;;;;;;4157806;28;20046;-68
2021/05/30 01:12:48;;;;;;;12.43;5.78;;;14.30;99.90;;;;;;4153941;28;20041;-68
2021/05/30 01:14:49;;;;;;;8.98;5.95;;;14.30;99.90;;;;;;4157721;28;20133;-68
2021/05/30 01:16:50;;;;;;;8.57;6.40;;;14.30;99.90;;;;;;4156828;28;20033;-68
2021/05/30 01:18:54;;;;;;;8.95;6.35;;;14.20;99.90;;;;;;4157160;28;20404;-68
2021/05/30 01:20:55;;;;;;;10.43;6.53;;;14.20;99.90;;;;;;4156489;28;20096;-68
2021/05/30 01:22:56;;;;;;;10.75;7.30;;;14.20;99.90;;;;;;4157175;28;20037;-69
2021/05/30 01:24:57;;;;;;;9.43;7.03;;;14.20;99.90;;;;;;4138996;28;20185;-69
2021/05/30 01:26:58;;;;;;;10.50;7.50;;;14.10;99.90;;;;;;4157575;28;20057;-69
2021/05/30 01:28:59;;;;;;;9.93;6.93;;;14.10;99.90;;;;;;4154900;28;20701;-68
2021/05/30 01:31:00;;;;;;;9.43;6.93;;;14.10;99.90;;;;;;4157044;28;20048;-69
2021/05/30 01:33:01;;;;;;;8.85;6.85;;;14.00;99.90;;;;;;4156770;28;20606;-69
2021/05/30 01:35:03;;;;;;;8.98;6.72;;;14.00;99.90;;;;;;4157358;28;20088;-68
2021/05/30 01:37:04;;;;;;;9.38;7.00;;;14.00;99.90;;;;;;4155861;28;20057;-68
2021/05/30 01:39:05;;;;;;;9.63;7.15;;;13.90;99.90;;;;;;4157488;28;20467;-69
2021/05/30 01:41:06;;;;;;;9.30;7.15;;;14.00;99.90;;;;;;4160538;28;20046;-69
2021/05/30 01:43:07;;;;;;;10.38;7.30;;;13.90;99.90;;;;;;4160349;28;20041;-69
2021/05/30 01:45:08;;;;;;;11.55;8.35;;;13.90;99.90;;;;;;4160059;28;20099;-68
2021/05/30 01:47:09;;;;;;;11.10;7.43;;;13.90;99.90;;;;;;4159107;28;20041;-68
2021/05/30 01:49:09;;;;;;;11.13;7.90;;;13.90;99.90;;;;;;4160015;28;20057;-68
2021/05/30 01:51:10;;;;;;;10.98;7.35;;;13.90;99.90;;;;;;4159944;28;20037;-69
2021/05/30 01:53:11;;;;;;;12.10;7.72;;;13.90;99.90;;;;;;4160320;28;20052;-69
2021/05/30 01:55:25;;;;;;;11.45;7.68;;;13.90;99.90;;;;;;4158801;28;20033;-68
2021/05/30 01:57:26;;;;;;;10.25;7.05;;;13.80;99.90;;;;;;4160312;28;20037;-68
2021/05/30 01:59:28;;;;;;;9.95;7.75;;;13.80;99.90;;;;;;4158556;28;20400;-68
2021/05/30 02:01:31;;;;;;;8.52;6.85;;;13.80;99.90;;;;;;4160281;28;20037;-68
2021/05/30 02:03:32;;;;;;;12.15;7.60;;;13.80;99.90;;;;;;4157925;28;20037;-68
2021/05/30 02:05:34;;;;;;;11.48;7.53;;;13.80;99.90;;;;;;4142131;28;20038;-69
2021/05/30 02:07:38;;;;;;;9.70;6.88;;;13.70;99.90;;;;;;4158803;28;20112;-68
2021/05/30 02:09:38;;;;;;;10.48;7.03;;;13.70;99.90;;;;;;4160380;28;20060;-68
2021/05/30 02:11:39;;;;;;;10.32;7.70;;;13.70;99.90;;;;;;4160445;28;20421;-68
2021/05/30 02:13:41;;;;;;;9.30;6.75;;;13.70;99.90;;;;;;4160556;28;20034;-68
2021/05/30 02:15:43;;;;;;;10.23;7.32;;;13.70;99.90;;;;;;4160617;28;20037;-68
2021/05/30 02:17:44;;;;;;;9.32;6.93;;;13.70;99.90;;;;;;4160255;28;20038;-68
2021/05/30 02:19:44;;;;;;;9.38;7.20;;;13.70;99.90;;;;;;4154891;28;20061;-69
2021/05/30 02:21:48;;;;;;;9.77;7.43;;;13.70;99.90;;;;;;4164333;28;20033;-68
2021/05/30 02:23:49;;;;;;;11.00;7.75;;;13.70;99.90;;;;;;4166035;28;20041;-69
2021/05/30 02:25:50;;;;;;;11.98;6.97;;;13.70;99.90;;;;;;4163391;28;20041;-69
2021/05/30 02:27:52;;;;;;;10.93;7.15;;;13.70;99.90;;;;;;4160469;28;20047;-69
2021/05/30 02:29:53;;;;;;;9.75;7.70;;;13.70;99.90;;;;;;4159009;28;20036;-68
2021/05/30 02:31:53;;;;;;;9.43;6.90;;;13.70;99.90;;;;;;4157142;28;20069;-68
2021/05/30 02:33:54;;;;;;;10.80;7.55;;;13.60;99.90;;;;;;4160042;28;20125;-69
2021/05/30 02:35:55;;;;;;;10.90;7.60;;;13.60;99.90;;;;;;4158456;28;20057;-68
2021/05/30 02:37:56;;;;;;;9.55;7.25;;;13.60;99.90;;;;;;4160226;28;21541;-68
2021/05/30 02:39:57;;;;;;;10.50;7.70;;;13.60;99.90;;;;;;4160027;28;20073;-68
2021/05/30 02:41:58;;;;;;;10.60;7.20;;;13.50;99.90;;;;;;4160043;28;20121;-69
2021/05/30 02:43:58;;;;;;;9.20;6.88;;;13.50;99.90;;;;;;4157525;28;20041;-68
2021/05/30 02:45:59;;;;;;;9.57;7.32;;;13.50;99.90;;;;;;4158109;28;20721;-69
2021/05/30 02:47:59;;;;;;;9.88;7.72;;;13.50;99.90;;;;;;4159975;28;20041;-69
2021/05/30 02:50:00;;;;;;;9.68;7.30;;;13.50;99.90;;;;;;4156545;28;20431;-69
2021/05/30 02:52:02;;;;;;;13.05;8.70;;;13.50;99.90;;;;;;4156955;28;20042;-69
2021/05/30 02:54:03;;;;;;;10.00;7.67;;;13.50;99.90;;;;;;4159751;28;20610;-68
2021/05/30 02:56:04;;;;;;;12.40;8.27;;;13.50;99.90;;;;;;4157497;28;20272;-69
2021/05/30 02:58:05;;;;;;;11.68;8.32;;;13.50;99.90;;;;;;4159376;28;20029;-68
2021/05/30 03:00:08;;;;;;;11.70;8.05;;;13.40;99.90;;;;;;4159916;28;20040;-68
2021/05/30 03:02:08;;;;;;;12.15;8.20;;;13.40;99.90;;;;;;4155836;28;20057;-69
2021/05/30 03:04:09;;;;;;;11.27;7.80;;;13.40;99.90;;;;;;4159209;28;20034;-68
2021/05/30 03:06:10;;;;;;;10.27;7.97;;;13.40;99.90;;;;;;4159744;28;20038;-68
2021/05/30 03:08:11;;;;;;;11.85;8.50;;;13.30;99.90;;;;;;4159390;28;20045;-68
2021/05/30 03:10:12;;;;;;;10.43;8.20;;;13.40;99.90;;;;;;4157947;28;20036;-68
2021/05/30 03:12:13;;;;;;;12.00;8.73;;;13.40;99.90;;;;;;4159923;28;20124;-68
2021/05/30 03:14:14;;;;;;;11.15;8.52;;;13.30;99.90;;;;;;4158235;28;20591;-68
2021/05/30 03:16:15;;;;;;;11.93;7.85;;;13.30;99.90;;;;;;4157997;28;20029;-69
2021/05/30 03:18:15;;;;;;;11.13;8.30;;;13.30;99.90;;;;;;4158342;28;20404;-69
2021/05/30 03:20:16;;;;;;;11.43;8.35;;;13.30;99.90;;;;;;4159257;28;20417;-69
2021/05/30 03:22:20;;;;;;;11.05;8.43;;;13.30;99.90;;;;;;4159421;28;20041;-68
2021/05/30 03:24:20;;;;;;;10.88;8.38;;;13.30;99.90;;;;;;4159211;28;20036;-68
2021/05/30 03:26:21;;;;;;;11.18;8.55;;;13.30;99.90;;;;;;4158011;28;20432;-68
2021/05/30 03:28:22;;;;;;;12.20;8.55;;;13.20;99.90;;;;;;4157641;28;20056;-69
2021/05/30 03:30:22;;;;;;;11.55;8.32;;;13.20;99.90;;;;;;4154210;28;20034;-69
2021/05/30 03:32:23;;;;;;;10.32;8.10;;;13.20;99.90;;;;;;4157972;28;20075;-68
2021/05/30 03:34:24;;;;;;;10.48;7.95;;;13.20;99.90;;;;;;4158149;28;20033;-69
2021/05/30 03:36:29;;;;;;;13.10;9.23;;;13.20;99.90;;;;;;4157516;28;20424;-68
2021/05/30 03:38:31;;;;;;;12.20;8.55;;;13.10;99.90;;;;;;4159367;28;20036;-68
2021/05/30 03:40:39;;;;;;;13.40;8.90;;;13.10;99.90;;;;;;4158339;28;20033;-69
2021/05/30 03:42:47;;;;;;;12.85;8.77;;;13.10;99.90;;;;;;4152142;28;20064;-69
2021/05/30 03:44:48;;;;;;;11.50;8.27;;;13.10;99.90;;;;;;4159403;28;20045;-68
2021/05/30 03:46:49;;;;;;;12.15;8.98;;;13.10;99.90;;;;;;4159238;28;20478;-68
2021/05/30 03:48:49;;;;;;;12.07;9.20;;;13.00;99.90;;;;;;4159607;28;20112;-68
2021/05/30 03:50:50;;;;;;;12.75;8.48;;;13.00;99.90;;;;;;4159061;28;20053;-68
2021/05/30 03:52:51;;;;;;;13.38;9.63;;;13.00;99.90;;;;;;4157462;28;20572;-68
2021/05/30 03:54:51;;;;;;;12.25;8.57;;;12.90;99.90;;;;;;4157212;28;20459;-68
2021/05/30 03:56:52;;;;;;;12.52;8.93;;;12.90;99.90;;;;;;4157097;28;20093;-68
2021/05/30 03:58:52;;;;;;;13.23;9.68;;;12.80;99.90;;;;;;4158811;28;20140;-68
2021/05/30 04:00:53;;;;;;;12.13;8.25;;;12.80;99.90;;;;;;4158476;28;20436;-68
2021/05/30 04:02:53;;;;;;;12.60;9.38;;;12.80;99.90;;;;;;4156048;28;20041;-69
2021/05/30 04:04:54;;;;;;;13.23;8.63;;;12.80;99.90;;;;;;4157211;28;20033;-68
2021/05/30 04:06:54;;;;;;;12.68;8.93;;;12.80;99.90;;;;;;4151236;28;20041;-69
2021/05/30 04:08:55;;;;;;;14.80;8.90;;;12.80;99.90;;;;;;4140744;28;20373;-68
2021/05/30 04:10:56;;;;;;;13.50;9.82;;;12.80;99.90;;;;;;4157091;28;20037;-68
2021/05/30 04:12:56;;;;;;;11.88;8.65;;;12.80;99.90;;;;;;4157065;28;20478;-69
2021/05/30 04:14:57;;;;;;;12.73;8.65;;;12.80;99.90;;;;;;4158550;28;20577;-68
2021/05/30 04:16:57;;;;;;;14.20;9.75;;;12.80;99.90;;;;;;4157261;28;20038;-69
2021/05/30 04:18:58;;;;;;;13.55;9.55;;;12.80;99.90;;;;;;4158843;28;20077;-69
2021/05/30 04:20:58;;;;;;;12.93;9.20;;;12.80;99.90;;;;;;4158013;28;21816;-69
2021/05/30 04:22:59;;;;;;;13.00;9.43;;;12.90;99.90;;;;;;4156426;28;20562;-68
2021/05/30 04:25:00;;;;;;;15.05;10.02;;;12.90;99.90;;;;;;4158972;28;20056;-68
2021/05/30 04:27:00;;;;;;;12.15;8.98;;;12.90;99.90;;;;;;4156321;28;20038;-69
2021/05/30 04:29:01;;;;;;;14.10;9.23;;;12.90;99.90;;;;;;4158847;28;20056;-69
2021/05/30 04:31:01;;;;;;;12.70;8.80;;;12.90;99.90;;;;;;4158931;28;20049;-68
2021/05/30 04:33:02;;;;;;;13.32;9.15;;;12.90;99.90;;;;;;4158096;28;20038;-69
2021/05/30 04:35:04;;;;;;;16.00;9.73;;;12.90;99.90;;;;;;4159505;28;20107;-68
2021/05/30 04:37:05;;;;;;;13.02;9.57;;;12.90;99.90;;;;;;4156891;28;20096;-68
2021/05/30 04:39:05;;;;;;;12.82;9.57;;;12.90;99.90;;;;;;4158462;28;20515;-68
2021/05/30 04:41:06;;;;;;;14.27;9.18;;;13.00;99.90;;;;;;4158954;28;20094;-68
2021/05/30 04:43:06;;;;;;;13.57;9.05;;;13.00;99.90;;;;;;4156371;28;20155;-68
2021/05/30 04:45:07;;;;;;;13.40;8.88;;;13.00;99.90;;;;;;4158567;28;20128;-69
2021/05/30 04:47:08;;;;;;;12.35;9.07;;;13.00;99.90;;;;;;4158984;28;20029;-68
2021/05/30 04:49:09;;;;;;;12.35;9.18;;;13.00;99.90;;;;;;4157229;28;20049;-68
2021/05/30 04:51:13;;;;;;;13.05;8.77;;;13.00;99.90;;;;;;4159221;28;20037;-68
2021/05/30 04:53:13;;;;;;;14.48;9.45;;;13.10;99.90;;;;;;4156875;28;20632;-68
2021/05/30 04:55:14;;;;;;;10.02;8.02;;;13.10;99.90;;;;;;4158738;28;20041;-68
2021/05/30 04:57:14;;;;;;;11.85;8.98;;;13.10;99.90;;;;;;4158829;28;20045;-68
2021/05/30 04:59:15;;;;;;;12.00;8.43;;;13.10;99.90;;;;;;4158700;28;20045;-69
2021/05/30 05:01:16;;;;;;;13.27;9.25;;;13.10;99.90;;;;;;4156935;28;20092;-69
2021/05/30 05:03:16;;;;;;;12.50;9.50;;;13.20;99.90;;;;;;4155437;28;20504;-68
2021/05/30 05:05:17;;;;;;;13.80;9.55;;;13.20;99.90;;;;;;4153892;28;20124;-69
2021/05/30 05:07:17;;;;;;;12.38;9.35;;;13.20;99.90;;;;;;4158772;28;20026;-68
2021/05/30 05:09:18;;;;;;;14.52;9.50;;;13.20;99.90;;;;;;4158857;28;20373;-68
2021/05/30 05:11:19;;;;;;;16.73;9.43;;;13.20;99.90;;;;;;4158366;28;20034;-68
2021/05/30 05:13:20;;;;;;;13.60;10.20;;;13.20;99.90;;;;;;4141807;28;20041;-68
2021/05/30 05:15:21;;;;;;;16.65;10.85;;;13.20;99.90;;;;;;4161452;28;20029;-69
2021/05/30 05:17:21;;;;;;;15.73;11.27;;;13.20;99.90;;;;;;4159936;28;20041;-68
2021/05/30 05:19:22;;;;;;;15.90;9.85;;;13.20;99.90;;;;;;4161663;28;20493;-69
2021/05/30 05:21:22;;;;;;;14.90;10.35;;;13.30;99.90;;;;;;4157327;28;20046;-69
2021/05/30 05:23:24;;;;;;;14.68;9.57;;;13.30;99.90;;;;;;4149531;28;20038;-69
2021/05/30 05:25:25;;;;;;;15.10;9.80;;;13.30;99.90;;;;;;4161423;28;20052;-69
2021/05/30 05:27:26;;;;;;;15.35;10.55;;;13.30;99.90;;;;;;4161351;28;20052;-69
2021/05/30 05:29:26;;;;;;;13.77;10.07;;;13.30;99.90;;;;;;4164322;28;20091;-69
2021/05/30 05:31:27;;;;;;;15.13;10.73;;;13.30;99.90;;;;;;4154117;28;20026;-68
2021/05/30 05:33:27;;;;;;;15.52;10.18;;;13.30;99.90;;;;;;4161181;28;20029;-69
2021/05/30 05:35:29;;;;;;;15.35;10.55;;;13.40;99.90;;;;;;4122748;28;20037;-68
2021/05/30 05:37:29;;;;;;;18.40;11.65;;;13.40;99.90;;;;;;4166508;28;20044;-69
2021/05/30 05:39:31;;;;;;;16.33;11.52;;;13.40;99.90;;;;;;4157231;28;20045;-69
2021/05/30 05:41:32;;;;;;;16.38;10.80;;;13.50;99.90;;;;;;4162783;28;20041;-68
2021/05/30 05:43:32;;;;;;;17.92;12.70;;;13.50;99.90;;;;;;4162694;28;20091;-68
2021/05/30 05:45:34;;;;;;;16.45;11.23;;;13.50;99.90;;;;;;4164159;28;20037;-69
2021/05/30 05:47:34;;;;;;;16.27;11.05;;;13.50;99.90;;;;;;4159160;28;20038;-68
2021/05/30 05:49:35;;;;;;;17.50;11.70;;;13.50;99.90;;;;;;4154178;28;20515;-68
2021/05/30 05:51:35;;;;;;;18.77;12.05;;;13.60;99.90;;;;;;4162287;28;20048;-68
2021/05/30 05:53:36;;;;;;;17.65;12.02;;;13.80;99.90;;;;;;4161900;28;20478;-69
2021/05/30 05:55:37;;;;;;;21.83;13.43;;;14.10;99.90;;;;;;4161944;28;20033;-69
2021/05/30 05:57:39;;;;;;;17.33;12.40;;;14.50;99.90;;;;;;4172256;28;20431;-68
2021/05/30 05:59:39;;;;;;;18.60;12.25;;;14.90;99.90;;;;;;4166428;28;20033;-68
2021/05/30 06:01:40;;;;;;;18.50;12.70;;;15.30;99.90;;;;;;4172040;28;20086;-69
2021/05/30 06:03:40;;;;;;;17.67;12.68;;;15.80;99.90;;;;;;4167303;28;20067;-69
2021/05/30 06:05:41;;;;;;;19.52;13.30;;;16.10;99.90;;;;;;4166712;28;20044;-69
2021/05/30 06:07:42;;;;;;;14.25;10.98;;;16.50;99.90;;;;;;4162323;28;20052;-69
2021/05/30 06:09:42;;;;;;;13.57;10.32;;;16.90;99.90;;;;;;4159983;28;20064;-69
2021/05/30 06:11:43;;;;;;;14.20;9.73;;;17.30;99.90;;;;;;4162846;28;20029;-71
2021/05/30 06:13:44;;;;;;;14.98;10.77;;;17.70;99.90;;;;;;4152335;28;20034;-70
2021/05/30 06:15:44;;;;;;;13.63;9.50;;;18.10;99.90;;;;;;4160647;28;20049;-71
2021/05/30 06:17:50;;;;;;;14.68;10.05;;;18.40;99.90;;;;;;4167238;28;20034;-70
2021/05/30 06:19:50;;;;;;;13.88;10.10;;;18.50;99.90;;;;;;4162009;28;20026;-71
2021/05/30 06:21:51;;;;;;;12.32;9.02;;;18.70;99.90;;;;;;4146213;28;20375;-71
2021/05/30 06:23:51;;;;;;;11.07;8.07;;;18.90;99.90;;;;;;4166136;28;20092;-70
2021/05/30 06:25:52;;;;;;;14.18;8.48;;;19.10;99.90;;;;;;4162373;28;20460;-70
2021/05/30 06:27:55;;;;;;;10.77;7.70;;;19.20;99.90;;;;;;4148248;28;20105;-71
2021/05/30 06:29:56;;;;;;;11.82;8.48;;;19.40;99.90;;;;;;4152465;28;20037;-71
2021/05/30 06:31:57;;;;;;;10.95;8.32;;;19.60;99.90;;;;;;4156738;28;20067;-71
2021/05/30 06:33:58;;;;;;;13.73;8.80;;;19.50;99.90;;;;;;4158448;28;20053;-71
2021/05/30 06:35:58;;;;;;;10.65;8.65;;;19.50;99.90;;;;;;4165079;28;20041;-71
2021/05/30 06:38:01;;;;;;;10.90;8.43;;;19.40;99.90;;;;;;4159331;28;20108;-70
2021/05/30 06:40:01;;;;;;;11.98;8.18;;;19.30;99.90;;;;;;4166984;28;20029;-71
2021/05/30 06:42:02;;;;;;;12.27;8.35;;;19.10;99.90;;;;;;4167310;28;20122;-71
2021/05/30 06:44:05;;;;;;;14.70;9.10;;;19.00;99.90;;;;;;4166028;28;20478;-71
2021/05/30 06:46:05;;;;;;;11.52;8.15;;;18.90;99.90;;;;;;4162874;28;20501;-71
2021/05/30 06:48:06;;;;;;;10.45;8.18;;;18.80;99.90;;;;;;4159615;28;20044;-71
2021/05/30 06:50:07;;;;;;;12.60;8.40;;;18.80;99.90;;;;;;4162040;28;20342;-71
2021/05/30 06:52:08;;;;;;;16.25;9.07;;;18.80;99.90;;;;;;4159469;28;20052;-71
2021/05/30 06:54:09;;;;;;;12.60;9.57;;;18.70;99.90;;;;;;4158235;28;20038;-71
2021/05/30 06:56:11;;;;;;;12.55;8.55;;;18.70;99.90;;;;;;4162470;28;20385;-71
2021/05/30 06:58:11;;;;;;;13.10;8.63;;;18.60;99.90;;;;;;4164757;28;20427;-71
2021/05/30 07:00:13;;;;;;;10.07;8.07;;;18.60;99.90;;;;;;4160940;28;20095;-71
2021/05/30 07:02:15;;;;;;;13.33;9.03;;;18.60;99.90;;;;;;4159928;28;20034;-71
2021/05/30 07:04:16;;;;;;;12.32;9.05;;;18.50;99.90;;;;;;4158830;28;20049;-71
2021/05/30 07:06:18;;;;;;;15.38;8.68;;;18.40;99.90;;;;;;4163868;28;20040;-71
2021/05/30 07:08:18;;;;;;;13.50;9.98;;;18.40;99.90;;;;;;4158707;28;20052;-71
2021/05/30 07:10:19;;;;;;;16.23;8.95;;;18.20;99.90;;;;;;4159107;28;20466;-71
2021/05/30 07:12:20;;;;;;;11.73;8.52;;;18.10;99.90;;;;;;4162779;28;20033;-71
2021/05/30 07:14:20;;;;;;;14.05;9.50;;;18.10;99.90;;;;;;4154587;28;20589;-71
2021/05/30 07:16:21;;;;;;;18.15;10.25;;;18.00;99.90;;;;;;4156676;28;20026;-71
2021/05/30 07:18:22;;;;;;;14.90;8.75;;;17.90;99.90;;;;;;4167505;28;20060;-71
2021/05/30 07:20:23;;;;;;;15.07;10.40;;;17.90;99.90;;;;;;4173616;28;20033;-71
2021/05/30 07:22:24;;;;;;;14.57;9.95;;;17.80;99.90;;;;;;4169436;28;20132;-71
2021/05/30 07:24:24;;;;;;;11.20;8.32;;;17.80;99.90;;;;;;4164438;28;20056;-71
2021/05/30 07:26:25;;;;;;;14.93;9.52;;;17.80;99.90;;;;;;4165913;28;20029;-72
2021/05/30 07:28:25;;;;;;;12.25;9.02;;;17.80;99.90;;;;;;4165223;28;20080;-71
2021/05/30 07:30:26;;;;;;;14.90;10.02;;;17.70;99.90;;;;;;4167741;28;20029;-72
2021/05/30 07:32:26;;;;;;;14.27;9.55;;;17.70;99.90;;;;;;4166152;28;20488;-72
2021/05/30 07:34:27;;;;;;;13.25;9.02;;;17.60;99.90;;;;;;4160065;28;20037;-71
2021/05/30 07:36:29;;;;;;;13.05;9.23;;;17.60;99.90;;;;;;4160214;28;20092;-71
2021/05/30 07:38:29;;;;;;;14.02;9.80;;;17.60;99.90;;;;;;4163057;28;20045;-71
2021/05/30 07:40:31;;;;;;;13.43;8.85;;;17.60;99.90;;;;;;4160061;28;20036;-71
2021/05/30 07:42:32;;;;;;;13.68;8.77;;;17.60;99.90;;;;;;4158215;28;20029;-71
2021/05/30 07:44:32;;;;;;;10.95;8.43;;;17.50;99.90;;;;;;4162088;28;20051;-71
2021/05/30 07:46:33;;;;;;;15.63;9.68;;;17.60;99.90;;;;;;4161372;28;20033;-71
2021/05/30 07:48:33;;;;;;;11.55;8.10;;;17.60;99.90;;;;;;4153915;28;20022;-71
2021/05/30 07:50:35;;;;;;;13.80;8.30;;;17.60;99.90;;;;;;4161808;28;20543;-70
2021/05/30 07:52:36;;;;;;;11.20;8.10;;;17.50;99.90;;;;;;4160931;28;20038;-71
2021/05/30 07:54:37;;;;;;;11.65;7.15;;;17.60;99.90;;;;;;4158629;28;20041;-71
2021/05/30 07:56:38;;;;;;;11.98;6.78;;;17.50;99.90;;;;;;4158335;28;20593;-71
2021/05/30 07:58:39;;;;;;;10.27;7.25;;;17.50;99.90;;;;;;4155632;28;20389;-71
2021/05/30 08:00:40;;;;;;;10.25;6.68;;;17.50;99.90;;;;;;4161297;28;20104;-71
2021/05/30 08:02:41;;;;;;;12.85;8.43;;;17.40;99.90;;;;;;4142499;28;20030;-71
2021/05/30 08:04:42;;;;;;;14.65;9.18;;;17.40;99.90;;;;;;4157254;28;20096;-71
2021/05/30 08:06:42;;;;;;;11.65;7.75;;;17.40;99.90;;;;;;4160016;28;20025;-71
2021/05/30 08:08:43;;;;;;;11.77;8.00;;;17.40;99.90;;;;;;4158446;28;20041;-71
2021/05/30 08:10:44;;;;;;;12.82;7.78;;;17.50;99.90;;;;;;4146843;28;20030;-71
2021/05/30 08:12:45;;;;;;;14.55;7.43;;;17.50;99.90;;;;;;4159044;28;20117;-70
2021/05/30 08:14:46;;;;;;;13.90;8.20;;;17.60;99.90;;;;;;4152776;28;20504;-70
2021/05/30 08:16:47;;;;;;;14.20;8.30;;;17.60;99.90;;;;;;4158878;28;20033;-68
2021/05/30 08:18:48;;;;;;;11.75;8.15;;;17.60;99.90;;;;;;4164332;28;20029;-68
2021/05/30 08:20:49;;;;;;;13.82;7.47;;;17.60;99.90;;;;;;4162381;28;20037;-67
2021/05/30 08:22:50;;;;;;;16.42;9.38;;;17.60;99.90;;;;;;4155338;28;20094;-67
2021/05/30 08:24:51;;;;;;;12.77;8.10;;;17.60;99.90;;;;;;4154737;28;20034;-67
2021/05/30 08:26:54;;;;;;;17.98;9.90;;;17.70;99.90;;;;;;4159557;28;20079;-67
2021/05/30 08:28:55;;;;;;;19.48;9.38;;;17.70;99.90;;;;;;4158221;28;20030;-67
2021/05/30 08:30:56;;;;;;;16.45;8.40;;;17.70;99.90;;;;;;4159176;28;20113;-67
2021/05/30 08:32:56;;;;;;;14.13;8.70;;;17.80;99.90;;;;;;4150859;28;20146;-67
2021/05/30 08:34:57;;;;;;;16.08;8.23;;;17.90;99.90;;;;;;4158989;28;20048;-67
2021/05/30 08:36:58;;;;;;;15.90;8.60;;;18.00;99.90;;;;;;4157563;28;20034;-67
2021/05/30 08:38:58;;;;;;;13.90;8.20;;;18.10;99.90;;;;;;4158689;28;20051;-67
2021/05/30 08:40:59;;;;;;;13.25;7.60;;;18.20;99.90;;;;;;4156638;28;22126;-67
2021/05/30 08:43:00;;;;;;;10.50;7.15;;;18.30;99.90;;;;;;4157737;28;20045;-67
2021/05/30 08:45:00;;;;;;;14.75;7.88;;;18.30;99.90;;;;;;4159349;28;20034;-67
2021/05/30 08:47:01;;;;;;;10.98;6.85;;;18.40;99.90;;;;;;4160309;28;20033;-67
2021/05/30 08:49:05;;;;;;;12.63;7.35;;;18.50;99.90;;;;;;4159274;28;20095;-67
2021/05/30 08:51:06;;;;;;;14.85;8.15;;;18.60;99.90;;;;;;4159784;28;20045;-67
2021/05/30 08:53:07;;;;;;;14.57;7.47;;;18.60;99.90;;;;;;4161513;28;20045;-67
2021/05/30 08:55:09;;;;;;;18.40;9.07;;;18.60;99.90;;;;;;4160295;28;20397;-67
2021/05/30 08:57:09;;;;;;;17.55;8.90;;;18.70;99.90;;;;;;4158701;28;20053;-67
2021/05/30 08:59:14;;;;;;;16.02;8.43;;;18.70;99.90;;;;;;4144039;28;20084;-67
2021/05/30 09:01:20;;;;;;;14.63;7.60;;;18.80;99.90;;;;;;4163116;28;20033;-67
2021/05/30 09:03:21;;;;;;;14.38;7.75;;;18.90;99.90;;;;;;4159752;28;20045;-67
2021/05/30 09:05:34;;;;;;;14.75;7.78;;;18.90;99.90;;;;;;4162543;28;20037;-67
2021/05/30 09:07:44;;;;;;;15.57;8.27;;;19.10;99.90;;;;;;4162481;28;20170;-67
2021/05/30 09:09:47;;;;;;;14.82;7.32;;;19.20;99.90;;;;;;4153328;28;20025;-67
2021/05/30 09:11:50;;;;;;;10.80;6.63;;;19.20;99.90;;;;;;4144581;28;20112;-67
2021/05/30 09:13:59;;;;;;;11.63;7.00;;;19.30;99.90;;;;;;4158747;28;20072;-67
2021/05/30 09:18:14;;;;;;;10.88;6.93;;;19.50;99.90;;;;;;4160602;28;20074;-67
2021/05/30 09:20:14;;;;;;;12.65;6.68;;;19.60;99.90;;;;;;4156687;28;20037;-67
2021/05/30 09:22:15;;;;;;;8.93;5.25;;;19.60;99.90;;;;;;4160820;28;20489;-67
2021/05/30 09:24:15;;;;;;;7.63;4.95;;;19.70;99.90;;;;;;4158740;28;20042;-67
2021/05/30 09:26:19;;;;;;;7.20;4.47;;;19.80;99.90;;;;;;4158330;28;20481;-67
2021/05/30 09:28:21;;;;;;;6.95;4.18;;;19.80;99.70;;;;;;4156683;28;20033;-67
2021/05/30 09:30:27;;;;;;;6.32;4.40;;;19.90;99.90;;;;;;4157269;28;20068;-67
2021/05/30 09:32:28;;;;;;;4.45;3.40;;;20.00;98.80;;;;;;4161044;28;20470;-67
2021/05/30 09:34:33;;;;;;;4.55;3.70;;;20.10;99.90;;;;;;4159136;28;20082;-67
2021/05/30 09:36:49;;;;;;;6.68;3.63;;;20.20;98.70;;;;;;4162788;28;20421;-70
2021/05/30 09:39:04;;;;;;;6.45;4.13;;;20.30;98.00;;;;;;4150668;28;20029;-67
2021/05/30 09:41:05;;;;;;;5.70;3.78;;;20.50;97.40;;;;;;4157201;28;20046;-67
2021/05/30 09:43:29;;;;;;;5.25;3.85;;;20.50;98.20;;;;;;4153637;28;20029;-67
2021/05/30 09:45:29;;;;;;;5.53;3.67;;;20.50;95.40;;;;;;4174058;28;20060;-67
2021/05/30 09:47:31;;;;;;;3.70;2.83;;;20.50;93.50;;;;;;4158470;28;20040;-66
2021/05/30 09:49:52;;;;;;;4.65;3.13;;;20.50;95.00;;;;;;4154698;28;20045;-67
2021/05/30 09:51:53;;;;;;;4.30;2.78;;;20.60;93.00;;;;;;4154545;28;20464;-67
2021/05/30 09:54:05;;;;;;;4.40;2.85;;;20.60;90.60;;;;;;4153021;28;20044;-67
2021/05/30 09:56:27;;;;;;;3.78;2.88;;;20.70;94.50;;;;;;4156165;28;20121;-67
2021/05/30 09:58:28;;;;;;;4.70;2.40;;;20.80;93.30;;;;;;4158003;28;20733;-67
2021/05/30 10:00:29;;;;;;;2.50;2.00;;;20.90;92.30;;;;;;4151824;28;20029;-69
2021/05/30 10:02:32;;;;;;;3.08;2.45;;;21.00;92.00;;;;;;4153931;28;20537;-67
2021/05/30 10:04:34;;;;;;;3.60;2.10;;;21.10;89.80;;;;;;4167622;28;20041;-67
2021/05/30 10:06:35;;;;;;;;;;;21.20;90.40;;;;;;4159082;28;20075;-66
2021/05/30 10:08:36;;;;;;;3.45;2.20;;;21.20;91.70;;;;;;4168852;28;20314;-67
2021/05/30 10:10:37;;;;;;;3.30;2.03;;;21.30;92.10;;;;;;4167013;28;20029;-67
2021/05/30 10:12:38;;;;;;;3.65;2.00;;;21.40;86.70;;;;;;4161722;28;20038;-67
2021/05/30 10:14:39;;;;;;;3.20;2.03;;;21.30;80.40;;;;;;4154711;28;20080;-67
2021/05/30 10:16:40;;;;;;;6.13;2.38;;;21.30;83.30;;;;;;4168703;28;20037;-67
2021/05/30 10:18:45;;;;;;;3.80;2.25;;;21.50;86.10;;;;;;4162908;28;20110;-67
2021/05/30 10:20:50;;;;;;;3.15;1.95;;;21.50;76.60;;;;;;4166366;28;20175;-67
2021/05/30 10:22:56;;;;;;;3.75;2.30;;;21.50;79.70;;;;;;4157694;28;20106;-67
2021/05/30 10:24:56;;;;;;;4.47;2.13;;;21.60;84.30;;;;;;4153028;28;20057;-68
2021/05/30 10:27:23;;;;;;;6.00;2.58;;;21.70;81.60;;;;;;4156568;28;20037;-68
2021/05/30 10:29:24;;;;;;;3.53;2.22;;;21.70;77.70;;;;;;4159028;28;20513;-69